sensor_id;sensor_type;location;lat;lon;timestamp;pressure;altitude;pressure_sealevel;temperature;humidity
29935;BME280;19905;53.370;-6.314;2023-03-14T00:00:07;98911.41;;;2.69;100.00
29935;BME280;19905;53.370;-6.314;2023-03-14T00:02:37;98919.47;;;2.66;100.00
29935;BME280;19905;53.370;-6.314;2023-03-14T00:05:09;98924.06;;;2.62;100.00
29935;BME280;19905;53.370;-6.314;2023-03-14T00:07:39;98937.31;;;2.59;100.00
29935;BME280;19905;53.370;-6.314;2023-03-14T00:10:12;98950.53;;;2.56;100.00
29935;BME280;19905;53.370;-6.314;2023-03-14T00:12:42;98957.53;;;2.55;100.00
29935;BME280;19905;53.370;-6.314;2023-03-14T00:15:12;98959.53;;;2.52;100.00
29935;BME280;19905;53.370;-6.314;2023-03-14T00:17:43;98964.03;;;2.50;100.00
29935;BME280;19905;53.370;-6.314;2023-03-14T00:20:13;98973.75;;;2.48;100.00
29935;BME280;19905;53.370;-6.314;2023-03-14T00:22:42;98980.94;;;2.44;100.00
29935;BME280;19905;53.370;-6.314;2023-03-14T00:25:12;98985.41;;;2.42;100.00
29935;BME280;19905;53.370;-6.314;2023-03-14T00:27:40;98991.44;;;2.43;100.00
29935;BME280;19905;53.370;-6.314;2023-03-14T00:30:10;98996.66;;;2.43;100.00
29935;BME280;19905;53.370;-6.314;2023-03-14T00:32:39;99003.06;;;2.39;100.00
29935;BME280;19905;53.370;-6.314;2023-03-14T00:35:08;99008.47;;;2.36;100.00
29935;BME280;19905;53.370;-6.314;2023-03-14T00:37:38;99008.47;;;2.36;100.00
29935;BME280;19905;53.370;-6.314;2023-03-14T00:40:08;99011.06;;;2.36;100.00
29935;BME280;19905;53.370;-6.314;2023-03-14T00:42:38;99024.94;;;2.36;100.00
29935;BME280;19905;53.370;-6.314;2023-03-14T00:45:08;99025.03;;;2.35;100.00
29935;BME280;19905;53.370;-6.314;2023-03-14T00:47:37;99035.34;;;2.36;100.00
29935;BME280;19905;53.370;-6.314;2023-03-14T00:50:07;99035.34;;;2.36;100.00
29935;BME280;19905;53.370;-6.314;2023-03-14T00:52:38;99050.03;;;2.37;100.00
29935;BME280;19905;53.370;-6.314;2023-03-14T00:55:07;99048.38;;;2.36;100.00
29935;BME280;19905;53.370;-6.314;2023-03-14T00:57:36;99056.06;;;2.38;100.00
29935;BME280;19905;53.370;-6.314;2023-03-14T01:00:06;99061.09;;;2.41;100.00
29935;BME280;19905;53.370;-6.314;2023-03-14T01:02:38;99066.19;;;2.42;100.00
29935;BME280;19905;53.370;-6.314;2023-03-14T01:05:07;99081.72;;;2.44;100.00
29935;BME280;19905;53.370;-6.314;2023-03-14T01:07:41;99087.66;;;2.46;100.00
29935;BME280;19905;53.370;-6.314;2023-03-14T01:10:11;99091.09;;;2.46;100.00
29935;BME280;19905;53.370;-6.314;2023-03-14T01:12:40;99090.91;;;2.49;100.00
29935;BME280;19905;53.370;-6.314;2023-03-14T01:15:10;99104.56;;;2.53;100.00
29935;BME280;19905;53.370;-6.314;2023-03-14T01:17:38;99106.94;;;2.56;100.00
29935;BME280;19905;53.370;-6.314;2023-03-14T01:20:10;99119.75;;;2.59;100.00
29935;BME280;19905;53.370;-6.314;2023-03-14T01:22:41;99120.50;;;2.61;100.00
29935;BME280;19905;53.370;-6.314;2023-03-14T01:25:12;99130.38;;;2.69;100.00
29935;BME280;19905;53.370;-6.314;2023-03-14T01:27:41;99139.97;;;2.68;100.00
29935;BME280;19905;53.370;-6.314;2023-03-14T01:30:12;99148.31;;;2.73;100.00
29935;BME280;19905;53.370;-6.314;2023-03-14T01:32:41;99156.66;;;2.78;100.00
29935;BME280;19905;53.370;-6.314;2023-03-14T01:35:10;99178.25;;;2.80;100.00
29935;BME280;19905;53.370;-6.314;2023-03-14T01:37:38;99178.13;;;2.82;100.00
29935;BME280;19905;53.370;-6.314;2023-03-14T01:40:11;99193.97;;;2.79;100.00
29935;BME280;19905;53.370;-6.314;2023-03-14T01:42:46;99209.22;;;2.72;100.00
29935;BME280;19905;53.370;-6.314;2023-03-14T01:48:20;99231.44;;;2.52;100.00
29935;BME280;19905;53.370;-6.314;2023-03-14T01:50:49;99251.22;;;2.55;100.00
29935;BME280;19905;53.370;-6.314;2023-03-14T01:53:18;99257.19;;;2.57;100.00
29935;BME280;19905;53.370;-6.314;2023-03-14T01:55:50;99270.91;;;2.46;100.00
29935;BME280;19905;53.370;-6.314;2023-03-14T01:58:23;99279.03;;;2.42;100.00
29935;BME280;19905;53.370;-6.314;2023-03-14T02:00:55;99298.91;;;2.30;100.00
29935;BME280;19905;53.370;-6.314;2023-03-14T02:03:27;99303.97;;;2.19;100.00
29935;BME280;19905;53.370;-6.314;2023-03-14T02:06:01;99318.03;;;2.16;100.00
29935;BME280;19905;53.370;-6.314;2023-03-14T02:08:33;99325.22;;;2.13;100.00
29935;BME280;19905;53.370;-6.314;2023-03-14T02:11:06;99334.16;;;2.09;100.00
29935;BME280;19905;53.370;-6.314;2023-03-14T02:13:36;99345.69;;;2.04;100.00
29935;BME280;19905;53.370;-6.314;2023-03-14T02:16:05;99353.25;;;1.95;100.00
29935;BME280;19905;53.370;-6.314;2023-03-14T02:18:34;99357.34;;;1.99;100.00
29935;BME280;19905;53.370;-6.314;2023-03-14T02:21:07;99362.28;;;1.89;100.00
29935;BME280;19905;53.370;-6.314;2023-03-14T02:23:45;99367.69;;;1.86;100.00
29935;BME280;19905;53.370;-6.314;2023-03-14T02:26:21;99374.38;;;1.90;100.00
29935;BME280;19905;53.370;-6.314;2023-03-14T02:28:53;99384.88;;;1.89;100.00
29935;BME280;19905;53.370;-6.314;2023-03-14T02:31:22;99397.38;;;1.84;100.00
29935;BME280;19905;53.370;-6.314;2023-03-14T02:33:52;99402.34;;;1.87;100.00
29935;BME280;19905;53.370;-6.314;2023-03-14T02:36:21;99406.63;;;1.88;100.00
29935;BME280;19905;53.370;-6.314;2023-03-14T02:38:55;99417.91;;;1.88;100.00
29935;BME280;19905;53.370;-6.314;2023-03-14T02:41:30;99422.91;;;1.91;100.00
29935;BME280;19905;53.370;-6.314;2023-03-14T02:44:00;99426.44;;;1.90;100.00
29935;BME280;19905;53.370;-6.314;2023-03-14T02:46:29;99427.94;;;1.94;100.00
29935;BME280;19905;53.370;-6.314;2023-03-14T02:49:02;99417.06;;;2.02;100.00
29935;BME280;19905;53.370;-6.314;2023-03-14T02:51:32;99404.47;;;2.09;100.00
29935;BME280;19905;53.370;-6.314;2023-03-14T02:54:01;99393.13;;;2.10;100.00
29935;BME280;19905;53.370;-6.314;2023-03-14T02:56:30;99405.78;;;2.16;100.00
29935;BME280;19905;53.370;-6.314;2023-03-14T02:59:02;99416.81;;;2.19;100.00
29935;BME280;19905;53.370;-6.314;2023-03-14T03:01:32;99394.97;;;2.22;100.00
29935;BME280;19905;53.370;-6.314;2023-03-14T03:04:01;99401.94;;;2.21;100.00
29935;BME280;19905;53.370;-6.314;2023-03-14T03:06:30;99441.31;;;2.17;100.00
29935;BME280;19905;53.370;-6.314;2023-03-14T03:08:59;99453.28;;;2.19;100.00
29935;BME280;19905;53.370;-6.314;2023-03-14T03:11:27;99459.06;;;2.24;100.00
29935;BME280;19905;53.370;-6.314;2023-03-14T03:13:57;99455.53;;;2.25;100.00
29935;BME280;19905;53.370;-6.314;2023-03-14T03:16:28;99471.91;;;2.27;100.00
29935;BME280;19905;53.370;-6.314;2023-03-14T03:18:56;99467.72;;;2.25;100.00
29935;BME280;19905;53.370;-6.314;2023-03-14T03:21:25;99487.53;;;2.27;100.00
29935;BME280;19905;53.370;-6.314;2023-03-14T03:23:53;99485.69;;;2.29;100.00
29935;BME280;19905;53.370;-6.314;2023-03-14T03:26:23;99479.53;;;2.31;100.00
29935;BME280;19905;53.370;-6.314;2023-03-14T03:28:52;99496.84;;;2.32;100.00
29935;BME280;19905;53.370;-6.314;2023-03-14T03:31:20;99520.28;;;2.32;100.00
29935;BME280;19905;53.370;-6.314;2023-03-14T03:33:51;99533.59;;;2.27;100.00
29935;BME280;19905;53.370;-6.314;2023-03-14T03:36:21;99526.50;;;2.29;100.00
29935;BME280;19905;53.370;-6.314;2023-03-14T03:38:51;99549.97;;;2.29;100.00
29935;BME280;19905;53.370;-6.314;2023-03-14T03:41:20;99585.88;;;2.24;100.00
29935;BME280;19905;53.370;-6.314;2023-03-14T03:43:48;99600.66;;;2.23;100.00
29935;BME280;19905;53.370;-6.314;2023-03-14T03:46:17;99608.03;;;2.17;100.00
29935;BME280;19905;53.370;-6.314;2023-03-14T03:48:45;99601.06;;;2.17;100.00
29935;BME280;19905;53.370;-6.314;2023-03-14T03:51:16;99580.59;;;2.11;100.00
29935;BME280;19905;53.370;-6.314;2023-03-14T03:53:44;99582.44;;;2.09;100.00
29935;BME280;19905;53.370;-6.314;2023-03-14T03:56:13;99596.56;;;2.05;100.00
29935;BME280;19905;53.370;-6.314;2023-03-14T03:58:42;99604.56;;;2.02;100.00
29935;BME280;19905;53.370;-6.314;2023-03-14T04:01:11;99613.38;;;1.99;100.00
29935;BME280;19905;53.370;-6.314;2023-03-14T04:03:40;99625.75;;;1.96;100.00
29935;BME280;19905;53.370;-6.314;2023-03-14T04:06:10;99627.34;;;1.98;100.00
29935;BME280;19905;53.370;-6.314;2023-03-14T04:08:41;99632.63;;;1.97;100.00
29935;BME280;19905;53.370;-6.314;2023-03-14T04:11:10;99653.91;;;1.89;100.00
29935;BME280;19905;53.370;-6.314;2023-03-14T04:13:39;99675.69;;;1.88;100.00
29935;BME280;19905;53.370;-6.314;2023-03-14T04:16:13;99692.41;;;1.84;100.00
29935;BME280;19905;53.370;-6.314;2023-03-14T04:18:43;99696.84;;;1.82;100.00
29935;BME280;19905;53.370;-6.314;2023-03-14T04:21:12;99709.78;;;1.84;100.00
29935;BME280;19905;53.370;-6.314;2023-03-14T04:23:42;99700.81;;;1.73;100.00
29935;BME280;19905;53.370;-6.314;2023-03-14T04:26:10;99704.50;;;1.69;100.00
29935;BME280;19905;53.370;-6.314;2023-03-14T04:28:39;99715.84;;;1.68;100.00
29935;BME280;19905;53.370;-6.314;2023-03-14T04:31:08;99717.88;;;1.63;100.00
29935;BME280;19905;53.370;-6.314;2023-03-14T04:33:37;99721.50;;;1.61;100.00
29935;BME280;19905;53.370;-6.314;2023-03-14T04:36:08;99744.31;;;1.56;100.00
29935;BME280;19905;53.370;-6.314;2023-03-14T04:38:38;99741.06;;;1.52;100.00
29935;BME280;19905;53.370;-6.314;2023-03-14T04:41:08;99748.84;;;1.52;100.00
29935;BME280;19905;53.370;-6.314;2023-03-14T04:43:37;99755.91;;;1.50;100.00
29935;BME280;19905;53.370;-6.314;2023-03-14T04:46:06;99767.22;;;1.49;100.00
29935;BME280;19905;53.370;-6.314;2023-03-14T04:48:34;99773.44;;;1.46;100.00
29935;BME280;19905;53.370;-6.314;2023-03-14T04:51:05;99782.09;;;1.47;100.00
29935;BME280;19905;53.370;-6.314;2023-03-14T04:53:33;99794.34;;;1.45;100.00
29935;BME280;19905;53.370;-6.314;2023-03-14T04:56:03;99791.63;;;1.46;100.00
29935;BME280;19905;53.370;-6.314;2023-03-14T04:58:34;99804.75;;;1.45;100.00
29935;BME280;19905;53.370;-6.314;2023-03-14T05:01:03;99793.50;;;1.44;100.00
29935;BME280;19905;53.370;-6.314;2023-03-14T05:03:33;99800.56;;;1.42;100.00
29935;BME280;19905;53.370;-6.314;2023-03-14T05:06:05;99807.94;;;1.34;100.00
29935;BME280;19905;53.370;-6.314;2023-03-14T05:08:33;99822.59;;;1.35;100.00
29935;BME280;19905;53.370;-6.314;2023-03-14T05:11:02;99828.19;;;1.27;100.00
29935;BME280;19905;53.370;-6.314;2023-03-14T05:13:31;99851.84;;;1.23;100.00
29935;BME280;19905;53.370;-6.314;2023-03-14T05:16:10;99856.47;;;1.18;100.00
29935;BME280;19905;53.370;-6.314;2023-03-14T05:18:39;99860.06;;;1.15;100.00
29935;BME280;19905;53.370;-6.314;2023-03-14T05:21:07;99874.91;;;1.13;100.00
29935;BME280;19905;53.370;-6.314;2023-03-14T05:23:36;99881.16;;;1.09;100.00
29935;BME280;19905;53.370;-6.314;2023-03-14T05:26:05;99878.88;;;1.03;100.00
29935;BME280;19905;53.370;-6.314;2023-03-14T05:28:34;99880.78;;;0.99;100.00
29935;BME280;19905;53.370;-6.314;2023-03-14T05:31:08;99877.50;;;0.96;100.00
29935;BME280;19905;53.370;-6.314;2023-03-14T05:33:37;99881.19;;;0.92;100.00
29935;BME280;19905;53.370;-6.314;2023-03-14T05:36:06;99883.94;;;0.89;100.00
29935;BME280;19905;53.370;-6.314;2023-03-14T05:38:35;99891.88;;;0.86;100.00
29935;BME280;19905;53.370;-6.314;2023-03-14T05:41:04;99899.06;;;0.81;100.00
29935;BME280;19905;53.370;-6.314;2023-03-14T05:43:33;99904.63;;;0.73;100.00
29935;BME280;19905;53.370;-6.314;2023-03-14T05:46:02;99902.13;;;0.71;100.00
29935;BME280;19905;53.370;-6.314;2023-03-14T05:48:32;99904.25;;;0.63;100.00
29935;BME280;19905;53.370;-6.314;2023-03-14T05:51:01;99898.50;;;0.57;100.00
29935;BME280;19905;53.370;-6.314;2023-03-14T05:53:29;99917.63;;;0.56;100.00
29935;BME280;19905;53.370;-6.314;2023-03-14T05:55:58;99920.44;;;0.51;100.00
29935;BME280;19905;53.370;-6.314;2023-03-14T05:58:27;99924.09;;;0.47;100.00
29935;BME280;19905;53.370;-6.314;2023-03-14T06:00:56;99927.63;;;0.46;100.00
29935;BME280;19905;53.370;-6.314;2023-03-14T06:03:26;99937.22;;;0.44;100.00
29935;BME280;19905;53.370;-6.314;2023-03-14T06:05:57;99939.13;;;0.40;100.00
29935;BME280;19905;53.370;-6.314;2023-03-14T06:08:25;99955.72;;;0.38;100.00
29935;BME280;19905;53.370;-6.314;2023-03-14T06:10:57;99959.28;;;0.35;100.00
29935;BME280;19905;53.370;-6.314;2023-03-14T06:13:26;99969.75;;;0.34;100.00
29935;BME280;19905;53.370;-6.314;2023-03-14T06:15:54;99971.56;;;0.32;100.00
29935;BME280;19905;53.370;-6.314;2023-03-14T06:18:25;99972.69;;;0.26;100.00
29935;BME280;19905;53.370;-6.314;2023-03-14T06:20:55;99978.72;;;0.27;100.00
29935;BME280;19905;53.370;-6.314;2023-03-14T06:23:25;99991.88;;;0.23;100.00
29935;BME280;19905;53.370;-6.314;2023-03-14T06:25:54;99995.31;;;0.24;100.00
29935;BME280;19905;53.370;-6.314;2023-03-14T06:28:23;100009.13;;;0.24;100.00
29935;BME280;19905;53.370;-6.314;2023-03-14T06:30:52;100011.81;;;0.23;100.00
29935;BME280;19905;53.370;-6.314;2023-03-14T06:33:21;100005.75;;;0.22;100.00
29935;BME280;19905;53.370;-6.314;2023-03-14T06:35:49;100012.69;;;0.22;100.00
29935;BME280;19905;53.370;-6.314;2023-03-14T06:38:18;100017.03;;;0.21;100.00
29935;BME280;19905;53.370;-6.314;2023-03-14T06:40:53;100025.75;;;0.20;100.00
29935;BME280;19905;53.370;-6.314;2023-03-14T06:43:21;100026.81;;;0.16;100.00
29935;BME280;19905;53.370;-6.314;2023-03-14T06:45:50;100036.44;;;0.14;100.00
29935;BME280;19905;53.370;-6.314;2023-03-14T06:48:19;100035.63;;;0.12;100.00
29935;BME280;19905;53.370;-6.314;2023-03-14T06:50:48;100051.22;;;0.12;100.00
29935;BME280;19905;53.370;-6.314;2023-03-14T06:53:16;100048.56;;;0.14;100.00
29935;BME280;19905;53.370;-6.314;2023-03-14T06:55:45;100048.69;;;0.11;100.00
29935;BME280;19905;53.370;-6.314;2023-03-14T06:58:16;100054.84;;;0.08;100.00
29935;BME280;19905;53.370;-6.314;2023-03-14T07:00:46;100056.56;;;0.09;100.00
29935;BME280;19905;53.370;-6.314;2023-03-14T07:03:15;100071.06;;;0.13;100.00
29935;BME280;19905;53.370;-6.314;2023-03-14T07:05:45;100072.00;;;0.12;100.00
29935;BME280;19905;53.370;-6.314;2023-03-14T07:08:13;100085.81;;;0.13;100.00
29935;BME280;19905;53.370;-6.314;2023-03-14T07:10:42;100088.22;;;0.17;100.00
29935;BME280;19905;53.370;-6.314;2023-03-14T07:13:11;100102.03;;;0.18;100.00
29935;BME280;19905;53.370;-6.314;2023-03-14T07:15:41;100114.06;;;0.20;100.00
29935;BME280;19905;53.370;-6.314;2023-03-14T07:18:09;100119.06;;;0.25;100.00
29935;BME280;19905;53.370;-6.314;2023-03-14T07:20:37;100120.53;;;0.31;100.00
29935;BME280;19905;53.370;-6.314;2023-03-14T07:23:06;100131.72;;;0.33;100.00
29935;BME280;19905;53.370;-6.314;2023-03-14T07:25:38;100138.47;;;0.37;100.00
29935;BME280;19905;53.370;-6.314;2023-03-14T07:28:06;100143.47;;;0.41;100.00
29935;BME280;19905;53.370;-6.314;2023-03-14T07:30:35;100148.47;;;0.46;100.00
29935;BME280;19905;53.370;-6.314;2023-03-14T07:33:05;100156.91;;;0.51;100.00
29935;BME280;19905;53.370;-6.314;2023-03-14T07:35:37;100156.41;;;0.62;100.00
29935;BME280;19905;53.370;-6.314;2023-03-14T07:38:06;100158.94;;;0.63;100.00
29935;BME280;19905;53.370;-6.314;2023-03-14T07:40:34;100169.19;;;0.66;100.00
29935;BME280;19905;53.370;-6.314;2023-03-14T07:43:03;100169.97;;;0.68;100.00
29935;BME280;19905;53.370;-6.314;2023-03-14T07:45:32;100185.34;;;0.73;100.00
29935;BME280;19905;53.370;-6.314;2023-03-14T07:48:10;100202.50;;;0.77;100.00
29935;BME280;19905;53.370;-6.314;2023-03-14T07:50:38;100187.50;;;0.84;100.00
29935;BME280;19905;53.370;-6.314;2023-03-14T07:53:07;100193.47;;;0.86;100.00
29935;BME280;19905;53.370;-6.314;2023-03-14T07:55:36;100205.09;;;0.97;100.00
29935;BME280;19905;53.370;-6.314;2023-03-14T07:58:04;100223.78;;;1.06;100.00
29935;BME280;19905;53.370;-6.314;2023-03-14T08:00:33;100203.66;;;1.09;100.00
29935;BME280;19905;53.370;-6.314;2023-03-14T08:03:04;100221.41;;;1.20;100.00
29935;BME280;19905;53.370;-6.314;2023-03-14T08:05:36;100221.25;;;1.23;100.00
29935;BME280;19905;53.370;-6.314;2023-03-14T08:08:05;100221.75;;;1.31;100.00
29935;BME280;19905;53.370;-6.314;2023-03-14T08:10:34;100225.97;;;1.34;100.00
29935;BME280;19905;53.370;-6.314;2023-03-14T08:13:03;100231.09;;;1.35;100.00
29935;BME280;19905;53.370;-6.314;2023-03-14T08:15:31;100232.25;;;1.30;100.00
29935;BME280;19905;53.370;-6.314;2023-03-14T08:17:59;100223.31;;;1.35;100.00
29935;BME280;19905;53.370;-6.314;2023-03-14T08:20:29;100230.13;;;1.38;100.00
29935;BME280;19905;53.370;-6.314;2023-03-14T08:23:00;100235.19;;;1.41;100.00
29935;BME280;19905;53.370;-6.314;2023-03-14T08:25:29;100243.19;;;1.36;100.00
29935;BME280;19905;53.370;-6.314;2023-03-14T08:27:58;100239.53;;;1.40;100.00
29935;BME280;19905;53.370;-6.314;2023-03-14T08:30:27;100234.41;;;1.39;100.00
29935;BME280;19905;53.370;-6.314;2023-03-14T08:32:56;100240.53;;;1.38;100.00
29935;BME280;19905;53.370;-6.314;2023-03-14T08:35:26;100235.47;;;1.35;100.00
29935;BME280;19905;53.370;-6.314;2023-03-14T08:37:55;100255.94;;;1.42;100.00
29935;BME280;19905;53.370;-6.314;2023-03-14T08:40:25;100257.88;;;1.37;100.00
29935;BME280;19905;53.370;-6.314;2023-03-14T08:42:54;100252.22;;;1.48;100.00
29935;BME280;19905;53.370;-6.314;2023-03-14T08:45:22;100257.00;;;1.57;100.00
29935;BME280;19905;53.370;-6.314;2023-03-14T08:47:52;100267.94;;;1.64;100.00
29935;BME280;19905;53.370;-6.314;2023-03-14T08:50:21;100262.53;;;1.68;100.00
29935;BME280;19905;53.370;-6.314;2023-03-14T08:52:50;100272.66;;;1.74;100.00
29935;BME280;19905;53.370;-6.314;2023-03-14T08:55:19;100275.28;;;1.74;100.00
29935;BME280;19905;53.370;-6.314;2023-03-14T08:57:49;100270.47;;;1.84;100.00
29935;BME280;19905;53.370;-6.314;2023-03-14T09:00:19;100291.84;;;1.91;100.00
29935;BME280;19905;53.370;-6.314;2023-03-14T09:02:48;100276.72;;;1.99;100.00
29935;BME280;19905;53.370;-6.314;2023-03-14T09:05:17;100293.19;;;1.99;100.00
29935;BME280;19905;53.370;-6.314;2023-03-14T09:07:46;100297.72;;;2.13;100.00
29935;BME280;19905;53.370;-6.314;2023-03-14T09:10:15;100285.44;;;2.15;100.00
29935;BME280;19905;53.370;-6.314;2023-03-14T09:12:44;100284.47;;;2.18;100.00
29935;BME280;19905;53.370;-6.314;2023-03-14T09:15:14;100282.41;;;2.24;100.00
29935;BME280;19905;53.370;-6.314;2023-03-14T09:17:42;100271.84;;;2.45;100.00
29935;BME280;19905;53.370;-6.314;2023-03-14T09:20:11;100262.88;;;2.50;100.00
29935;BME280;19905;53.370;-6.314;2023-03-14T09:22:41;100274.94;;;2.53;100.00
29935;BME280;19905;53.370;-6.314;2023-03-14T09:25:10;100279.97;;;2.56;100.00
29935;BME280;19905;53.370;-6.314;2023-03-14T09:27:39;100275.41;;;2.61;100.00
29935;BME280;19905;53.370;-6.314;2023-03-14T09:30:09;100274.69;;;2.75;100.00
29935;BME280;19905;53.370;-6.314;2023-03-14T09:32:39;100267.84;;;2.90;100.00
29935;BME280;19905;53.370;-6.314;2023-03-14T09:35:08;100274.13;;;3.03;100.00
29935;BME280;19905;53.370;-6.314;2023-03-14T09:37:37;100276.75;;;3.19;100.00
29935;BME280;19905;53.370;-6.314;2023-03-14T09:40:09;100275.03;;;3.35;100.00
29935;BME280;19905;53.370;-6.314;2023-03-14T09:42:40;100295.56;;;3.41;100.00
29935;BME280;19905;53.370;-6.314;2023-03-14T09:45:12;100293.34;;;3.34;100.00
29935;BME280;19905;53.370;-6.314;2023-03-14T09:47:46;100291.22;;;3.58;100.00
29935;BME280;19905;53.370;-6.314;2023-03-14T09:50:26;100297.44;;;3.71;100.00
29935;BME280;19905;53.370;-6.314;2023-03-14T09:53:03;100312.38;;;3.69;100.00
29935;BME280;19905;53.370;-6.314;2023-03-14T09:55:33;100310.34;;;3.74;100.00
29935;BME280;19905;53.370;-6.314;2023-03-14T09:58:10;100310.44;;;3.72;100.00
29935;BME280;19905;53.370;-6.314;2023-03-14T10:00:39;100303.88;;;3.81;100.00
29935;BME280;19905;53.370;-6.314;2023-03-14T10:03:26;100312.44;;;3.83;100.00
29935;BME280;19905;53.370;-6.314;2023-03-14T10:05:56;100332.34;;;4.01;100.00
29935;BME280;19905;53.370;-6.314;2023-03-14T10:08:25;100317.25;;;3.91;100.00
29935;BME280;19905;53.370;-6.314;2023-03-14T10:10:54;100308.72;;;4.03;100.00
29935;BME280;19905;53.370;-6.314;2023-03-14T10:13:24;100318.75;;;4.26;100.00
29935;BME280;19905;53.370;-6.314;2023-03-14T10:15:55;100332.28;;;4.49;100.00
29935;BME280;19905;53.370;-6.314;2023-03-14T10:18:30;100335.16;;;4.44;100.00
29935;BME280;19905;53.370;-6.314;2023-03-14T10:21:04;100348.22;;;4.44;100.00
29935;BME280;19905;53.370;-6.314;2023-03-14T10:23:34;100330.91;;;4.57;100.00
29935;BME280;19905;53.370;-6.314;2023-03-14T10:26:08;100344.75;;;4.59;100.00
29935;BME280;19905;53.370;-6.314;2023-03-14T10:28:43;100343.59;;;4.49;100.00
29935;BME280;19905;53.370;-6.314;2023-03-14T10:31:13;100318.59;;;4.59;100.00
29935;BME280;19905;53.370;-6.314;2023-03-14T10:33:58;100348.78;;;4.95;100.00
29935;BME280;19905;53.370;-6.314;2023-03-14T10:36:29;100323.53;;;4.94;100.00
29935;BME280;19905;53.370;-6.314;2023-03-14T10:39:16;100327.31;;;5.19;100.00
29935;BME280;19905;53.370;-6.314;2023-03-14T10:41:53;100313.19;;;5.07;100.00
29935;BME280;19905;53.370;-6.314;2023-03-14T10:44:25;100334.63;;;4.83;100.00
29935;BME280;19905;53.370;-6.314;2023-03-14T10:46:58;100331.34;;;4.80;100.00
29935;BME280;19905;53.370;-6.314;2023-03-14T10:49:30;100319.41;;;4.90;100.00
29935;BME280;19905;53.370;-6.314;2023-03-14T10:52:14;100336.97;;;5.18;100.00
29935;BME280;19905;53.370;-6.314;2023-03-14T10:54:47;100324.88;;;5.16;100.00
29935;BME280;19905;53.370;-6.314;2023-03-14T10:57:19;100331.34;;;5.24;100.00
29935;BME280;19905;53.370;-6.314;2023-03-14T10:59:47;100333.97;;;5.39;100.00
29935;BME280;19905;53.370;-6.314;2023-03-14T11:02:36;100345.38;;;5.38;100.00
29935;BME280;19905;53.370;-6.314;2023-03-14T11:05:22;100329.66;;;5.52;100.00
29935;BME280;19905;53.370;-6.314;2023-03-14T11:07:54;100342.44;;;5.85;100.00
29935;BME280;19905;53.370;-6.314;2023-03-14T11:10:32;100336.34;;;5.99;100.00
29935;BME280;19905;53.370;-6.314;2023-03-14T11:13:14;100328.81;;;6.21;100.00
29935;BME280;19905;53.370;-6.314;2023-03-14T11:15:53;100324.88;;;6.41;100.00
29935;BME280;19905;53.370;-6.314;2023-03-14T11:18:51;100329.91;;;6.31;100.00
29935;BME280;19905;53.370;-6.314;2023-03-14T11:21:29;100345.19;;;6.25;100.00
29935;BME280;19905;53.370;-6.314;2023-03-14T11:24:15;100334.25;;;6.18;100.00
29935;BME280;19905;53.370;-6.314;2023-03-14T11:26:52;100311.03;;;6.12;100.00
29935;BME280;19905;53.370;-6.314;2023-03-14T11:29:29;100318.91;;;6.12;100.00
29935;BME280;19905;53.370;-6.314;2023-03-14T11:32:12;100322.84;;;6.19;100.00
29935;BME280;19905;53.370;-6.314;2023-03-14T11:34:46;100315.56;;;6.37;100.00
29935;BME280;19905;53.370;-6.314;2023-03-14T11:37:25;100322.13;;;6.30;100.00
29935;BME280;19905;53.370;-6.314;2023-03-14T11:40:05;100330.94;;;6.29;100.00
29935;BME280;19905;53.370;-6.314;2023-03-14T11:42:37;100366.66;;;6.17;100.00
29935;BME280;19905;53.370;-6.314;2023-03-14T11:45:16;100323.56;;;6.21;100.00
29935;BME280;19905;53.370;-6.314;2023-03-14T11:47:51;100332.19;;;6.23;100.00
29935;BME280;19905;53.370;-6.314;2023-03-14T11:50:23;100315.88;;;6.32;100.00
29935;BME280;19905;53.370;-6.314;2023-03-14T11:53:01;100319.31;;;6.33;100.00
29935;BME280;19905;53.370;-6.314;2023-03-14T11:55:34;100307.69;;;6.37;100.00
29935;BME280;19905;53.370;-6.314;2023-03-14T11:58:11;100308.06;;;6.31;100.00
29935;BME280;19905;53.370;-6.314;2023-03-14T12:00:43;100302.34;;;6.39;100.00
29935;BME280;19905;53.370;-6.314;2023-03-14T12:03:19;100298.22;;;6.34;100.00
29935;BME280;19905;53.370;-6.314;2023-03-14T12:05:56;100314.84;;;6.21;100.00
29935;BME280;19905;53.370;-6.314;2023-03-14T12:08:47;100327.00;;;5.95;100.00
29935;BME280;19905;53.370;-6.314;2023-03-14T12:11:21;100323.72;;;5.91;100.00
29935;BME280;19905;53.370;-6.314;2023-03-14T12:13:53;100324.94;;;5.85;100.00
29935;BME280;19905;53.370;-6.314;2023-03-14T12:16:35;100309.13;;;5.87;100.00
29935;BME280;19905;53.370;-6.314;2023-03-14T12:19:22;100308.13;;;5.61;100.00
29935;BME280;19905;53.370;-6.314;2023-03-14T12:21:57;100332.75;;;5.30;100.00
29935;BME280;19905;53.370;-6.314;2023-03-14T12:24:30;100337.50;;;5.23;100.00
29935;BME280;19905;53.370;-6.314;2023-03-14T12:27:02;100353.03;;;5.26;100.00
29935;BME280;19905;53.370;-6.314;2023-03-14T12:29:32;100361.75;;;5.27;100.00
29935;BME280;19905;53.370;-6.314;2023-03-14T12:32:12;100367.91;;;5.26;100.00
29935;BME280;19905;53.370;-6.314;2023-03-14T12:34:49;100363.13;;;5.18;100.00
29935;BME280;19905;53.370;-6.314;2023-03-14T12:37:25;100462.63;;;5.18;100.00
29935;BME280;19905;53.370;-6.314;2023-03-14T12:40:13;100378.63;;;5.21;100.00
29935;BME280;19905;53.370;-6.314;2023-03-14T12:42:54;100378.78;;;5.48;100.00
29935;BME280;19905;53.370;-6.314;2023-03-14T12:45:28;100383.16;;;5.76;100.00
29935;BME280;19905;53.370;-6.314;2023-03-14T12:48:09;100392.25;;;5.99;100.00
29935;BME280;19905;53.370;-6.314;2023-03-14T12:50:43;100379.66;;;5.92;100.00
29935;BME280;19905;53.370;-6.314;2023-03-14T12:56:27;100384.56;;;5.53;100.00
29935;BME280;19905;53.370;-6.314;2023-03-14T12:59:19;100386.06;;;5.86;100.00
29935;BME280;19905;53.370;-6.314;2023-03-14T13:01:55;100396.38;;;5.75;100.00
29935;BME280;19905;53.370;-6.314;2023-03-14T13:04:29;100374.56;;;5.74;100.00
29935;BME280;19905;53.370;-6.314;2023-03-14T13:07:11;100383.09;;;5.64;100.00
29935;BME280;19905;53.370;-6.314;2023-03-14T13:10:03;100400.22;;;5.55;100.00
29935;BME280;19905;53.370;-6.314;2023-03-14T13:12:41;100398.16;;;5.46;100.00